sensor_id;sensor_type;location;lat;lon;timestamp;P1;durP1;ratioP1;P2;durP2;ratioP2
60306;SDS011;46155;52.364;6.580;2023-05-08T03:02:38;26.27;;;22.77;;
60306;SDS011;46155;52.364;6.580;2023-05-08T03:05:10;29.53;;;24.00;;
60306;SDS011;46155;52.364;6.580;2023-05-08T03:07:40;32.07;;;24.17;;
60306;SDS011;46155;52.364;6.580;2023-05-08T03:10:09;28.80;;;25.13;;
60306;SDS011;46155;52.364;6.580;2023-05-08T03:12:38;25.80;;;22.80;;
60306;SDS011;46155;52.364;6.580;2023-05-08T03:15:09;28.23;;;23.97;;
60306;SDS011;46155;52.364;6.580;2023-05-08T03:17:42;26.07;;;23.27;;
60306;SDS011;46155;52.364;6.580;2023-05-08T03:20:11;26.37;;;23.37;;
60306;SDS011;46155;52.364;6.580;2023-05-08T03:22:40;25.87;;;23.03;;
60306;SDS011;46155;52.364;6.580;2023-05-08T03:25:08;30.30;;;24.87;;
60306;SDS011;46155;52.364;6.580;2023-05-08T03:27:35;31.87;;;25.63;;
60306;SDS011;46155;52.364;6.580;2023-05-08T03:30:02;30.80;;;26.43;;
60306;SDS011;46155;52.364;6.580;2023-05-08T03:32:28;29.50;;;26.40;;
60306;SDS011;46155;52.364;6.580;2023-05-08T03:34:57;36.13;;;26.77;;
60306;SDS011;46155;52.364;6.580;2023-05-08T03:37:24;31.13;;;27.73;;
60306;SDS011;46155;52.364;6.580;2023-05-08T03:39:52;32.20;;;27.10;;
60306;SDS011;46155;52.364;6.580;2023-05-08T03:42:18;30.43;;;27.17;;
60306;SDS011;46155;52.364;6.580;2023-05-08T03:44:48;30.63;;;25.90;;
60306;SDS011;46155;52.364;6.580;2023-05-08T03:47:15;33.50;;;28.87;;
60306;SDS011;46155;52.364;6.580;2023-05-08T03:49:42;30.07;;;26.97;;
60306;SDS011;46155;52.364;6.580;2023-05-08T03:52:10;31.20;;;27.80;;
60306;SDS011;46155;52.364;6.580;2023-05-08T03:54:36;29.80;;;26.37;;
60306;SDS011;46155;52.364;6.580;2023-05-08T03:57:02;30.63;;;26.00;;
60306;SDS011;46155;52.364;6.580;2023-05-08T04:02:00;28.37;;;25.33;;
60306;SDS011;46155;52.364;6.580;2023-05-08T04:04:37;34.90;;;24.27;;
60306;SDS011;46155;52.364;6.580;2023-05-08T04:07:11;28.37;;;23.00;;
60306;SDS011;46155;52.364;6.580;2023-05-08T04:09:53;30.47;;;24.20;;
60306;SDS011;46155;52.364;6.580;2023-05-08T04:12:35;27.53;;;22.97;;
60306;SDS011;46155;52.364;6.580;2023-05-08T04:17:42;25.77;;;21.23;;
60306;SDS011;46155;52.364;6.580;2023-05-08T04:20:14;29.30;;;22.27;;
60306;SDS011;46155;52.364;6.580;2023-05-08T04:22:43;26.10;;;21.13;;
60306;SDS011;46155;52.364;6.580;2023-05-08T04:25:09;29.03;;;22.13;;
60306;SDS011;46155;52.364;6.580;2023-05-08T04:27:38;27.53;;;21.43;;
60306;SDS011;46155;52.364;6.580;2023-05-08T04:30:04;30.40;;;24.70;;
60306;SDS011;46155;52.364;6.580;2023-05-08T04:32:30;28.50;;;22.97;;
60306;SDS011;46155;52.364;6.580;2023-05-08T04:34:57;28.83;;;22.33;;
60306;SDS011;46155;52.364;6.580;2023-05-08T04:37:23;28.40;;;23.00;;
60306;SDS011;46155;52.364;6.580;2023-05-08T04:39:53;27.90;;;21.73;;
60306;SDS011;46155;52.364;6.580;2023-05-08T04:42:18;28.20;;;23.37;;
60306;SDS011;46155;52.364;6.580;2023-05-08T04:44:45;26.53;;;22.03;;
60306;SDS011;46155;52.364;6.580;2023-05-08T04:47:11;29.37;;;21.80;;
60306;SDS011;46155;52.364;6.580;2023-05-08T04:49:37;28.50;;;23.00;;
60306;SDS011;46155;52.364;6.580;2023-05-08T04:52:02;29.20;;;22.43;;
60306;SDS011;46155;52.364;6.580;2023-05-08T04:54:28;27.10;;;21.03;;
60306;SDS011;46155;52.364;6.580;2023-05-08T04:56:53;26.13;;;20.73;;
60306;SDS011;46155;52.364;6.580;2023-05-08T04:59:19;25.40;;;19.83;;
60306;SDS011;46155;52.364;6.580;2023-05-08T05:01:45;24.30;;;20.53;;
60306;SDS011;46155;52.364;6.580;2023-05-08T05:04:14;26.83;;;20.50;;
60306;SDS011;46155;52.364;6.580;2023-05-08T05:06:39;26.27;;;20.77;;
60306;SDS011;46155;52.364;6.580;2023-05-08T05:09:04;24.87;;;20.50;;
60306;SDS011;46155;52.364;6.580;2023-05-08T05:11:30;26.23;;;21.20;;
60306;SDS011;46155;52.364;6.580;2023-05-08T05:13:55;25.33;;;20.17;;
60306;SDS011;46155;52.364;6.580;2023-05-08T05:16:21;25.57;;;20.97;;
60306;SDS011;46155;52.364;6.580;2023-05-08T05:18:46;24.40;;;18.90;;
60306;SDS011;46155;52.364;6.580;2023-05-08T05:21:12;25.47;;;18.87;;
60306;SDS011;46155;52.364;6.580;2023-05-08T05:23:37;21.47;;;17.87;;
60306;SDS011;46155;52.364;6.580;2023-05-08T05:26:02;23.53;;;19.37;;
60306;SDS011;46155;52.364;6.580;2023-05-08T05:28:28;19.50;;;17.13;;
60306;SDS011;46155;52.364;6.580;2023-05-08T05:30:53;21.60;;;17.83;;
60306;SDS011;46155;52.364;6.580;2023-05-08T05:33:19;21.63;;;16.77;;
60306;SDS011;46155;52.364;6.580;2023-05-08T05:35:45;19.97;;;17.83;;
60306;SDS011;46155;52.364;6.580;2023-05-08T05:38:10;19.67;;;17.50;;
60306;SDS011;46155;52.364;6.580;2023-05-08T05:40:36;20.07;;;16.90;;
60306;SDS011;46155;52.364;6.580;2023-05-08T05:43:01;21.63;;;17.03;;
60306;SDS011;46155;52.364;6.580;2023-05-08T05:45:26;19.70;;;16.70;;
60306;SDS011;46155;52.364;6.580;2023-05-08T05:47:51;18.70;;;15.37;;
60306;SDS011;46155;52.364;6.580;2023-05-08T05:50:18;20.30;;;16.53;;
60306;SDS011;46155;52.364;6.580;2023-05-08T05:52:45;19.00;;;16.47;;
60306;SDS011;46155;52.364;6.580;2023-05-08T05:55:10;21.33;;;16.00;;
60306;SDS011;46155;52.364;6.580;2023-05-08T05:57:36;18.40;;;15.90;;
60306;SDS011;46155;52.364;6.580;2023-05-08T06:00:01;21.50;;;16.10;;
60306;SDS011;46155;52.364;6.580;2023-05-08T06:02:28;20.23;;;16.10;;
60306;SDS011;46155;52.364;6.580;2023-05-08T06:04:53;20.50;;;16.03;;
60306;SDS011;46155;52.364;6.580;2023-05-08T06:07:19;18.20;;;15.30;;
60306;SDS011;46155;52.364;6.580;2023-05-08T06:09:45;16.93;;;15.10;;
60306;SDS011;46155;52.364;6.580;2023-05-08T06:12:10;17.00;;;14.27;;
60306;SDS011;46155;52.364;6.580;2023-05-08T06:14:36;18.03;;;16.00;;
60306;SDS011;46155;52.364;6.580;2023-05-08T06:17:01;17.17;;;15.03;;
60306;SDS011;46155;52.364;6.580;2023-05-08T06:19:26;15.80;;;14.13;;
60306;SDS011;46155;52.364;6.580;2023-05-08T06:21:52;19.47;;;15.63;;
60306;SDS011;46155;52.364;6.580;2023-05-08T06:24:18;20.77;;;15.27;;
60306;SDS011;46155;52.364;6.580;2023-05-08T06:26:43;17.27;;;15.40;;
60306;SDS011;46155;52.364;6.580;2023-05-08T06:29:09;16.57;;;14.80;;
60306;SDS011;46155;52.364;6.580;2023-05-08T06:31:34;17.73;;;14.37;;
60306;SDS011;46155;52.364;6.580;2023-05-08T06:33:59;18.03;;;15.10;;
60306;SDS011;46155;52.364;6.580;2023-05-08T06:36:25;18.50;;;14.87;;
60306;SDS011;46155;52.364;6.580;2023-05-08T06:38:51;17.13;;;14.63;;
60306;SDS011;46155;52.364;6.580;2023-05-08T06:41:16;19.40;;;14.77;;
60306;SDS011;46155;52.364;6.580;2023-05-08T06:43:42;16.57;;;14.47;;
60306;SDS011;46155;52.364;6.580;2023-05-08T06:46:07;16.30;;;13.87;;
60306;SDS011;46155;52.364;6.580;2023-05-08T06:48:32;17.73;;;14.83;;
60306;SDS011;46155;52.364;6.580;2023-05-08T06:50:57;21.03;;;15.57;;
60306;SDS011;46155;52.364;6.580;2023-05-08T06:53:23;17.63;;;15.23;;
60306;SDS011;46155;52.364;6.580;2023-05-08T06:55:48;16.93;;;15.17;;
60306;SDS011;46155;52.364;6.580;2023-05-08T06:58:13;20.57;;;15.67;;
60306;SDS011;46155;52.364;6.580;2023-05-08T07:00:39;18.20;;;15.23;;
60306;SDS011;46155;52.364;6.580;2023-05-08T07:03:05;16.53;;;14.80;;
60306;SDS011;46155;52.364;6.580;2023-05-08T07:05:31;16.77;;;14.93;;
60306;SDS011;46155;52.364;6.580;2023-05-08T07:07:56;18.13;;;15.40;;
60306;SDS011;46155;52.364;6.580;2023-05-08T07:10:21;17.90;;;16.00;;
60306;SDS011;46155;52.364;6.580;2023-05-08T07:12:47;17.27;;;15.47;;
60306;SDS011;46155;52.364;6.580;2023-05-08T07:15:13;19.10;;;15.33;;
60306;SDS011;46155;52.364;6.580;2023-05-08T07:17:39;17.47;;;15.73;;
60306;SDS011;46155;52.364;6.580;2023-05-08T07:20:06;18.27;;;15.50;;
60306;SDS011;46155;52.364;6.580;2023-05-08T07:22:32;17.53;;;15.47;;
60306;SDS011;46155;52.364;6.580;2023-05-08T07:24:57;19.70;;;15.83;;
60306;SDS011;46155;52.364;6.580;2023-05-08T07:27:23;18.07;;;14.83;;
60306;SDS011;46155;52.364;6.580;2023-05-08T07:29:48;19.37;;;15.43;;
60306;SDS011;46155;52.364;6.580;2023-05-08T07:32:13;17.50;;;15.63;;
60306;SDS011;46155;52.364;6.580;2023-05-08T07:34:39;17.80;;;15.33;;
60306;SDS011;46155;52.364;6.580;2023-05-08T07:37:04;18.90;;;16.47;;
60306;SDS011;46155;52.364;6.580;2023-05-08T07:39:30;19.73;;;16.33;;
60306;SDS011;46155;52.364;6.580;2023-05-08T07:41:55;20.57;;;15.70;;
60306;SDS011;46155;52.364;6.580;2023-05-08T07:44:21;23.10;;;16.43;;
60306;SDS011;46155;52.364;6.580;2023-05-08T07:46:46;17.47;;;15.63;;
60306;SDS011;46155;52.364;6.580;2023-05-08T07:49:11;19.37;;;16.50;;
60306;SDS011;46155;52.364;6.580;2023-05-08T07:51:36;27.47;;;17.33;;
60306;SDS011;46155;52.364;6.580;2023-05-08T07:54:02;18.80;;;16.83;;
60306;SDS011;46155;52.364;6.580;2023-05-08T07:56:27;19.27;;;16.80;;
60306;SDS011;46155;52.364;6.580;2023-05-08T07:58:52;24.23;;;17.70;;
60306;SDS011;46155;52.364;6.580;2023-05-08T08:01:18;22.43;;;18.00;;
60306;SDS011;46155;52.364;6.580;2023-05-08T08:03:43;20.57;;;16.50;;
60306;SDS011;46155;52.364;6.580;2023-05-08T08:06:09;21.23;;;16.97;;
60306;SDS011;46155;52.364;6.580;2023-05-08T08:08:34;20.43;;;17.13;;
60306;SDS011;46155;52.364;6.580;2023-05-08T08:11:00;21.93;;;17.47;;
60306;SDS011;46155;52.364;6.580;2023-05-08T08:13:25;21.83;;;17.33;;
60306;SDS011;46155;52.364;6.580;2023-05-08T08:15:50;19.13;;;17.13;;
60306;SDS011;46155;52.364;6.580;2023-05-08T08:18:16;23.27;;;18.77;;
60306;SDS011;46155;52.364;6.580;2023-05-08T08:20:41;22.17;;;17.73;;
60306;SDS011;46155;52.364;6.580;2023-05-08T08:23:07;23.93;;;18.60;;
60306;SDS011;46155;52.364;6.580;2023-05-08T08:25:32;27.50;;;19.80;;
60306;SDS011;46155;52.364;6.580;2023-05-08T08:27:57;26.83;;;20.23;;
60306;SDS011;46155;52.364;6.580;2023-05-08T08:30:23;34.10;;;20.10;;
60306;SDS011;46155;52.364;6.580;2023-05-08T08:32:48;35.37;;;20.97;;
60306;SDS011;46155;52.364;6.580;2023-05-08T08:35:13;35.57;;;22.37;;
60306;SDS011;46155;52.364;6.580;2023-05-08T08:37:39;29.37;;;19.93;;
60306;SDS011;46155;52.364;6.580;2023-05-08T08:40:04;32.20;;;20.63;;
60306;SDS011;46155;52.364;6.580;2023-05-08T08:42:30;35.17;;;23.13;;
60306;SDS011;46155;52.364;6.580;2023-05-08T08:44:56;34.77;;;22.13;;
60306;SDS011;46155;52.364;6.580;2023-05-08T08:47:21;43.83;;;25.93;;
60306;SDS011;46155;52.364;6.580;2023-05-08T08:49:52;46.93;;;26.97;;
60306;SDS011;46155;52.364;6.580;2023-05-08T08:54:53;44.53;;;26.00;;
60306;SDS011;46155;52.364;6.580;2023-05-08T08:57:21;43.93;;;24.83;;
60306;SDS011;46155;52.364;6.580;2023-05-08T08:59:48;43.67;;;23.90;;
60306;SDS011;46155;52.364;6.580;2023-05-08T09:02:13;48.67;;;25.07;;
60306;SDS011;46155;52.364;6.580;2023-05-08T09:04:43;48.03;;;25.63;;
60306;SDS011;46155;52.364;6.580;2023-05-08T09:07:09;38.63;;;23.47;;
60306;SDS011;46155;52.364;6.580;2023-05-08T09:09:37;40.97;;;24.80;;
60306;SDS011;46155;52.364;6.580;2023-05-08T09:12:08;43.70;;;25.50;;
60306;SDS011;46155;52.364;6.580;2023-05-08T09:14:33;43.83;;;24.80;;
60306;SDS011;46155;52.364;6.580;2023-05-08T09:16:59;37.10;;;24.20;;
60306;SDS011;46155;52.364;6.580;2023-05-08T09:19:25;47.70;;;25.23;;
60306;SDS011;46155;52.364;6.580;2023-05-08T09:21:50;40.47;;;25.50;;
60306;SDS011;46155;52.364;6.580;2023-05-08T09:24:16;43.13;;;25.93;;
60306;SDS011;46155;52.364;6.580;2023-05-08T09:26:41;49.43;;;27.40;;
60306;SDS011;46155;52.364;6.580;2023-05-08T09:31:39;39.87;;;25.27;;
60306;SDS011;46155;52.364;6.580;2023-05-08T09:34:09;41.73;;;27.13;;
60306;SDS011;46155;52.364;6.580;2023-05-08T09:39:31;32.17;;;23.77;;
60306;SDS011;46155;52.364;6.580;2023-05-08T09:44:26;38.90;;;25.43;;
60306;SDS011;46155;52.364;6.580;2023-05-08T09:46:51;36.03;;;24.17;;
60306;SDS011;46155;52.364;6.580;2023-05-08T09:49:34;36.87;;;22.27;;
60306;SDS011;46155;52.364;6.580;2023-05-08T09:51:59;34.83;;;22.00;;
60306;SDS011;46155;52.364;6.580;2023-05-08T09:54:25;35.53;;;21.83;;
60306;SDS011;46155;52.364;6.580;2023-05-08T09:56:50;34.07;;;22.83;;
60306;SDS011;46155;52.364;6.580;2023-05-08T09:59:23;39.00;;;22.37;;
60306;SDS011;46155;52.364;6.580;2023-05-08T10:01:48;29.97;;;22.50;;
60306;SDS011;46155;52.364;6.580;2023-05-08T10:04:14;37.03;;;23.50;;
60306;SDS011;46155;52.364;6.580;2023-05-08T10:06:40;33.60;;;21.57;;
60306;SDS011;46155;52.364;6.580;2023-05-08T10:11:35;30.43;;;23.00;;
60306;SDS011;46155;52.364;6.580;2023-05-08T10:14:01;31.73;;;21.87;;
60306;SDS011;46155;52.364;6.580;2023-05-08T10:16:27;36.03;;;24.17;;
60306;SDS011;46155;52.364;6.580;2023-05-08T10:18:54;32.80;;;23.57;;
60306;SDS011;46155;52.364;6.580;2023-05-08T10:21:30;33.10;;;23.67;;
60306;SDS011;46155;52.364;6.580;2023-05-08T10:24:00;34.27;;;23.87;;
60306;SDS011;46155;52.364;6.580;2023-05-08T10:26:30;32.17;;;22.93;;
60306;SDS011;46155;52.364;6.580;2023-05-08T10:28:57;29.00;;;22.23;;
60306;SDS011;46155;52.364;6.580;2023-05-08T10:31:26;34.60;;;22.90;;
60306;SDS011;46155;52.364;6.580;2023-05-08T10:33:55;37.40;;;25.00;;
60306;SDS011;46155;52.364;6.580;2023-05-08T10:36:26;34.67;;;24.57;;
60306;SDS011;46155;52.364;6.580;2023-05-08T10:38:52;36.50;;;25.27;;
60306;SDS011;46155;52.364;6.580;2023-05-08T10:41:18;36.77;;;26.13;;
60306;SDS011;46155;52.364;6.580;2023-05-08T10:43:44;34.90;;;25.13;;
60306;SDS011;46155;52.364;6.580;2023-05-08T10:49:15;38.67;;;26.03;;
60306;SDS011;46155;52.364;6.580;2023-05-08T10:54:18;39.27;;;27.53;;
60306;SDS011;46155;52.364;6.580;2023-05-08T10:57:05;36.53;;;25.03;;
60306;SDS011;46155;52.364;6.580;2023-05-08T10:59:34;34.83;;;26.97;;
60306;SDS011;46155;52.364;6.580;2023-05-08T11:02:04;35.97;;;27.73;;
60306;SDS011;46155;52.364;6.580;2023-05-08T11:04:31;34.27;;;26.97;;
60306;SDS011;46155;52.364;6.580;2023-05-08T11:06:56;31.37;;;25.23;;
60306;SDS011;46155;52.364;6.580;2023-05-08T11:09:29;32.77;;;26.77;;
60306;SDS011;46155;52.364;6.580;2023-05-08T11:12:19;36.53;;;27.30;;
60306;SDS011;46155;52.364;6.580;2023-05-08T11:14:55;35.27;;;26.87;;
60306;SDS011;46155;52.364;6.580;2023-05-08T11:17:25;32.77;;;26.50;;
60306;SDS011;46155;52.364;6.580;2023-05-08T11:19:54;37.27;;;29.00;;
60306;SDS011;46155;52.364;6.580;2023-05-08T11:22:22;37.73;;;27.20;;
60306;SDS011;46155;52.364;6.580;2023-05-08T11:27:31;30.07;;;26.33;;
60306;SDS011;46155;52.364;6.580;2023-05-08T11:43:23;27.23;;;24.27;;
60306;SDS011;46155;52.364;6.580;2023-05-08T11:45:52;29.27;;;25.47;;
60306;SDS011;46155;52.364;6.580;2023-05-08T11:48:18;30.67;;;26.40;;
60306;SDS011;46155;52.364;6.580;2023-05-08T11:50:44;30.07;;;25.03;;
60306;SDS011;46155;52.364;6.580;2023-05-08T11:53:10;27.70;;;24.70;;
60306;SDS011;46155;52.364;6.580;2023-05-08T11:55:36;31.23;;;25.60;;
60306;SDS011;46155;52.364;6.580;2023-05-08T11:58:10;29.77;;;24.37;;
60306;SDS011;46155;52.364;6.580;2023-05-08T12:00:39;28.77;;;24.40;;
60306;SDS011;46155;52.364;6.580;2023-05-08T12:03:05;28.30;;;23.57;;
60306;SDS011;46155;52.364;6.580;2023-05-08T12:05:31;26.87;;;24.03;;
60306;SDS011;46155;52.364;6.580;2023-05-08T12:07:57;30.17;;;24.10;;
60306;SDS011;46155;52.364;6.580;2023-05-08T12:10:23;26.20;;;22.00;;
60306;SDS011;46155;52.364;6.580;2023-05-08T12:12:48;25.50;;;22.40;;
60306;SDS011;46155;52.364;6.580;2023-05-08T12:15:14;29.63;;;23.80;;
60306;SDS011;46155;52.364;6.580;2023-05-08T12:17:40;27.87;;;24.13;;
60306;SDS011;46155;52.364;6.580;2023-05-08T12:20:16;26.63;;;23.83;;
60306;SDS011;46155;52.364;6.580;2023-05-08T12:22:49;29.10;;;23.93;;
60306;SDS011;46155;52.364;6.580;2023-05-08T12:25:16;30.93;;;26.53;;
60306;SDS011;46155;52.364;6.580;2023-05-08T12:27:42;28.27;;;25.23;;
60306;SDS011;46155;52.364;6.580;2023-05-08T12:30:09;34.27;;;26.07;;
60306;SDS011;46155;52.364;6.580;2023-05-08T12:32:36;33.53;;;27.53;;
60306;SDS011;46155;52.364;6.580;2023-05-08T12:35:03;25.90;;;21.93;;
60306;SDS011;46155;52.364;6.580;2023-05-08T12:37:30;21.97;;;19.67;;
60306;SDS011;46155;52.364;6.580;2023-05-08T12:39:55;24.97;;;22.33;;
60306;SDS011;46155;52.364;6.580;2023-05-08T12:42:21;26.77;;;23.30;;
60306;SDS011;46155;52.364;6.580;2023-05-08T12:44:50;28.43;;;22.90;;
60306;SDS011;46155;52.364;6.580;2023-05-08T12:47:17;27.40;;;24.50;;
60306;SDS011;46155;52.364;6.580;2023-05-08T12:49:44;30.30;;;24.30;;
60306;SDS011;46155;52.364;6.580;2023-05-08T12:52:13;30.17;;;24.67;;
60306;SDS011;46155;52.364;6.580;2023-05-08T12:54:40;26.77;;;23.93;;
60306;SDS011;46155;52.364;6.580;2023-05-08T12:57:14;29.57;;;25.03;;
60306;SDS011;46155;52.364;6.580;2023-05-08T12:59:41;31.30;;;24.40;;
60306;SDS011;46155;52.364;6.580;2023-05-08T13:02:14;32.63;;;24.83;;
60306;SDS011;46155;52.364;6.580;2023-05-08T13:04:42;26.60;;;22.43;;
60306;SDS011;46155;52.364;6.580;2023-05-08T13:07:08;32.07;;;26.43;;
60306;SDS011;46155;52.364;6.580;2023-05-08T13:09:33;35.40;;;28.47;;
60306;SDS011;46155;52.364;6.580;2023-05-08T13:11:59;46.30;;;29.30;;
60306;SDS011;46155;52.364;6.580;2023-05-08T13:14:24;48.50;;;34.43;;
60306;SDS011;46155;52.364;6.580;2023-05-08T13:16:49;46.37;;;35.90;;
60306;SDS011;46155;52.364;6.580;2023-05-08T13:19:15;41.70;;;35.67;;
60306;SDS011;46155;52.364;6.580;2023-05-08T13:21:42;47.77;;;36.93;;
60306;SDS011;46155;52.364;6.580;2023-05-08T13:24:11;41.30;;;36.80;;
60306;SDS011;46155;52.364;6.580;2023-05-08T13:26:36;35.17;;;31.27;;
60306;SDS011;46155;52.364;6.580;2023-05-08T13:29:01;34.87;;;28.83;;
60306;SDS011;46155;52.364;6.580;2023-05-08T13:31:27;28.03;;;25.13;;
60306;SDS011;46155;52.364;6.580;2023-05-08T13:33:52;25.73;;;23.20;;
60306;SDS011;46155;52.364;6.580;2023-05-08T13:36:17;29.70;;;26.63;;
60306;SDS011;46155;52.364;6.580;2023-05-08T13:38:44;28.40;;;25.37;;
60306;SDS011;46155;52.364;6.580;2023-05-08T13:41:09;25.90;;;23.43;;
60306;SDS011;46155;52.364;6.580;2023-05-08T13:43:35;25.07;;;22.57;;
60306;SDS011;46155;52.364;6.580;2023-05-08T13:46:00;23.37;;;21.17;;
60306;SDS011;46155;52.364;6.580;2023-05-08T13:48:26;23.67;;;21.47;;
60306;SDS011;46155;52.364;6.580;2023-05-08T13:50:52;23.77;;;21.33;;
60306;SDS011;46155;52.364;6.580;2023-05-08T13:53:17;23.97;;;21.50;;
60306;SDS011;46155;52.364;6.580;2023-05-08T13:55:42;23.07;;;20.63;;
60306;SDS011;46155;52.364;6.580;2023-05-08T13:58:08;24.40;;;21.97;;
60306;SDS011;46155;52.364;6.580;2023-05-08T14:00:33;24.27;;;21.77;;
60306;SDS011;46155;52.364;6.580;2023-05-08T14:02:58;26.40;;;23.83;;
60306;SDS011;46155;52.364;6.580;2023-05-08T14:05:23;27.67;;;24.80;;
60306;SDS011;46155;52.364;6.580;2023-05-08T14:07:49;30.77;;;24.50;;
60306;SDS011;46155;52.364;6.580;2023-05-08T14:10:14;26.37;;;23.57;;
60306;SDS011;46155;52.364;6.580;2023-05-08T14:12:41;25.77;;;23.07;;
60306;SDS011;46155;52.364;6.580;2023-05-08T14:15:06;25.63;;;22.93;;
60306;SDS011;46155;52.364;6.580;2023-05-08T14:17:32;28.03;;;24.43;;
60306;SDS011;46155;52.364;6.580;2023-05-08T14:19:58;28.03;;;25.07;;
60306;SDS011;46155;52.364;6.580;2023-05-08T14:22:24;26.00;;;23.37;;
60306;SDS011;46155;52.364;6.580;2023-05-08T14:24:49;30.27;;;26.17;;
60306;SDS011;46155;52.364;6.580;2023-05-08T14:27:15;27.60;;;24.60;;
60306;SDS011;46155;52.364;6.580;2023-05-08T14:29:41;28.73;;;25.70;;
60306;SDS011;46155;52.364;6.580;2023-05-08T14:32:06;28.67;;;25.63;;
60306;SDS011;46155;52.364;6.580;2023-05-08T14:34:33;33.70;;;28.67;;
60306;SDS011;46155;52.364;6.580;2023-05-08T14:36:58;31.73;;;28.17;;
60306;SDS011;46155;52.364;6.580;2023-05-08T14:39:24;37.03;;;26.70;;
60306;SDS011;46155;52.364;6.580;2023-05-08T14:41:49;37.17;;;28.13;;
60306;SDS011;46155;52.364;6.580;2023-05-08T14:44:15;36.87;;;29.10;;
60306;SDS011;46155;52.364;6.580;2023-05-08T14:46:40;26.77;;;23.77;;
60306;SDS011;46155;52.364;6.580;2023-05-08T14:49:05;24.00;;;21.33;;
60306;SDS011;46155;52.364;6.580;2023-05-08T14:51:30;19.80;;;17.80;;
60306;SDS011;46155;52.364;6.580;2023-05-08T14:53:56;20.50;;;18.37;;
60306;SDS011;46155;52.364;6.580;2023-05-08T14:56:21;21.93;;;19.63;;
60306;SDS011;46155;52.364;6.580;2023-05-08T14:58:48;23.23;;;20.80;;
60306;SDS011;46155;52.364;6.580;2023-05-08T15:01:15;24.23;;;21.67;;
60306;SDS011;46155;52.364;6.580;2023-05-08T15:03:40;27.00;;;22.73;;
60306;SDS011;46155;52.364;6.580;2023-05-08T15:06:05;28.70;;;23.93;;
60306;SDS011;46155;52.364;6.580;2023-05-08T15:08:31;26.70;;;23.80;;
60306;SDS011;46155;52.364;6.580;2023-05-08T15:10:57;26.27;;;23.47;;
60306;SDS011;46155;52.364;6.580;2023-05-08T15:13:23;27.70;;;23.90;;
60306;SDS011;46155;52.364;6.580;2023-05-08T15:15:48;28.07;;;24.23;;
60306;SDS011;46155;52.364;6.580;2023-05-08T15:18:13;27.60;;;24.60;;
60306;SDS011;46155;52.364;6.580;2023-05-08T15:20:39;27.70;;;24.20;;
60306;SDS011;46155;52.364;6.580;2023-05-08T15:23:04;25.87;;;23.17;;
60306;SDS011;46155;52.364;6.580;2023-05-08T15:25:29;27.10;;;23.40;;
60306;SDS011;46155;52.364;6.580;2023-05-08T15:27:55;30.60;;;25.07;;
60306;SDS011;46155;52.364;6.580;2023-05-08T15:30:21;26.40;;;23.53;;
60306;SDS011;46155;52.364;6.580;2023-05-08T15:32:46;28.40;;;24.50;;
60306;SDS011;46155;52.364;6.580;2023-05-08T15:35:12;29.67;;;26.33;;
60306;SDS011;46155;52.364;6.580;2023-05-08T15:37:38;28.83;;;25.37;;
60306;SDS011;46155;52.364;6.580;2023-05-08T15:40:04;28.77;;;24.73;;
60306;SDS011;46155;52.364;6.580;2023-05-08T15:42:30;33.57;;;26.00;;
60306;SDS011;46155;52.364;6.580;2023-05-08T15:44:58;30.83;;;24.53;;
60306;SDS011;46155;52.364;6.580;2023-05-08T15:47:24;34.07;;;26.77;;
60306;SDS011;46155;52.364;6.580;2023-05-08T15:49:53;30.30;;;25.23;;
60306;SDS011;46155;52.364;6.580;2023-05-08T15:52:18;29.67;;;24.50;;
60306;SDS011;46155;52.364;6.580;2023-05-08T15:54:47;33.00;;;26.43;;
60306;SDS011;46155;52.364;6.580;2023-05-08T15:57:13;28.53;;;25.43;;
60306;SDS011;46155;52.364;6.580;2023-05-08T15:59:39;31.10;;;25.03;;
60306;SDS011;46155;52.364;6.580;2023-05-08T16:02:04;32.93;;;23.90;;
60306;SDS011;46155;52.364;6.580;2023-05-08T16:04:30;28.13;;;23.63;;
60306;SDS011;46155;52.364;6.580;2023-05-08T16:06:57;26.17;;;20.57;;
60306;SDS011;46155;52.364;6.580;2023-05-08T16:09:22;25.90;;;22.13;;
60306;SDS011;46155;52.364;6.580;2023-05-08T16:11:48;30.40;;;22.63;;
60306;SDS011;46155;52.364;6.580;2023-05-08T16:14:13;26.33;;;21.73;;
60306;SDS011;46155;52.364;6.580;2023-05-08T16:16:38;25.13;;;20.37;;
60306;SDS011;46155;52.364;6.580;2023-05-08T16:19:04;21.93;;;18.57;;
60306;SDS011;46155;52.364;6.580;2023-05-08T16:21:29;19.97;;;17.80;;
60306;SDS011;46155;52.364;6.580;2023-05-08T16:23:55;19.73;;;16.90;;
60306;SDS011;46155;52.364;6.580;2023-05-08T16:26:21;21.40;;;17.00;;
60306;SDS011;46155;52.364;6.580;2023-05-08T16:28:47;21.60;;;17.90;;
60306;SDS011;46155;52.364;6.580;2023-05-08T16:31:12;19.87;;;17.67;;
60306;SDS011;46155;52.364;6.580;2023-05-08T16:33:38;21.57;;;18.13;;
60306;SDS011;46155;52.364;6.580;2023-05-08T16:36:03;22.07;;;19.07;;
60306;SDS011;46155;52.364;6.580;2023-05-08T16:38:29;27.13;;;19.37;;
60306;SDS011;46155;52.364;6.580;2023-05-08T16:41:00;21.87;;;19.13;;
60306;SDS011;46155;52.364;6.580;2023-05-08T16:43:26;23.97;;;18.33;;
60306;SDS011;46155;52.364;6.580;2023-05-08T16:45:51;24.47;;;19.80;;
60306;SDS011;46155;52.364;6.580;2023-05-08T16:48:17;26.10;;;19.97;;
60306;SDS011;46155;52.364;6.580;2023-05-08T16:50:42;26.73;;;19.90;;
60306;SDS011;46155;52.364;6.580;2023-05-08T16:53:07;27.23;;;19.43;;
60306;SDS011;46155;52.364;6.580;2023-05-08T16:55:33;25.00;;;21.83;;
60306;SDS011;46155;52.364;6.580;2023-05-08T16:57:58;26.60;;;21.93;;
60306;SDS011;46155;52.364;6.580;2023-05-08T17:00:23;24.80;;;20.87;;
60306;SDS011;46155;52.364;6.580;2023-05-08T17:02:48;29.80;;;23.67;;
60306;SDS011;46155;52.364;6.580;2023-05-08T17:05:14;28.30;;;22.57;;
60306;SDS011;46155;52.364;6.580;2023-05-08T17:07:39;22.67;;;20.33;;
60306;SDS011;46155;52.364;6.580;2023-05-08T17:10:05;26.83;;;23.00;;
60306;SDS011;46155;52.364;6.580;2023-05-08T17:12:30;30.03;;;22.13;;
60306;SDS011;46155;52.364;6.580;2023-05-08T17:14:56;23.50;;;21.00;;
60306;SDS011;46155;52.364;6.580;2023-05-08T17:17:21;25.63;;;22.73;;
60306;SDS011;46155;52.364;6.580;2023-05-08T17:19:46;30.30;;;22.47;;
60306;SDS011;46155;52.364;6.580;2023-05-08T17:22:12;25.00;;;22.30;;
60306;SDS011;46155;52.364;6.580;2023-05-08T17:24:37;26.20;;;22.83;;
60306;SDS011;46155;52.364;6.580;2023-05-08T17:27:06;26.77;;;22.60;;
60306;SDS011;46155;52.364;6.580;2023-05-08T17:29:32;21.77;;;19.40;;
60306;SDS011;46155;52.364;6.580;2023-05-08T17:31:58;25.33;;;20.60;;
60306;SDS011;46155;52.364;6.580;2023-05-08T17:34:23;20.70;;;18.47;;
60306;SDS011;46155;52.364;6.580;2023-05-08T17:36:49;22.93;;;19.53;;
60306;SDS011;46155;52.364;6.580;2023-05-08T17:39:14;24.10;;;19.73;;
60306;SDS011;46155;52.364;6.580;2023-05-08T17:41:40;27.10;;;19.70;;
60306;SDS011;46155;52.364;6.580;2023-05-08T17:44:05;22.13;;;19.70;;
60306;SDS011;46155;52.364;6.580;2023-05-08T17:46:31;23.13;;;20.20;;
60306;SDS011;46155;52.364;6.580;2023-05-08T17:48:56;22.60;;;19.13;;
60306;SDS011;46155;52.364;6.580;2023-05-08T17:51:21;24.50;;;19.43;;
60306;SDS011;46155;52.364;6.580;2023-05-08T17:53:47;23.53;;;19.33;;
60306;SDS011;46155;52.364;6.580;2023-05-08T17:56:12;26.20;;;20.37;;
60306;SDS011;46155;52.364;6.580;2023-05-08T17:58:39;22.97;;;20.53;;